Terminal Aerodrome Forecast
Issued by NWS

Home | Current Version | Previous Version | Text Only | Print | Product List | Glossary On
Versions: 1 2 3 4 5 6 7 8 9 10 11 12 13 14 15 16 17 18 19 20 21 22 23 24 25 26
000
FTUS42 KGSP 271411 AAA
TAFAND
TAF AMD
KAND 271411Z 2714/2812 17005KT P6SM OVC012
      TEMPO 2714/2716 SCT012 BKN024
     FM271600 13006KT P6SM VCSH SCT022 BKN040 PROB30 2723/2802 4SM
      -TSRA OVC025CB
     FM280200 10006KT P6SM -SHRA OVC050
     FM280500 07006KT 6SM SHRA BR OVC025
     FM280700 06009KT 3SM +SHRA BR OVC007=

USA.gov is the U.S. government's official web portal to all federal, state and local government web resources and services.